Time;durP1;ratioP1;P1;durP2;ratioP2;P2;SDS_P1;SDS_P2;PMS_P1;PMS_P2;Temp;Humidity;BMP_temperature;BMP_pressure;BME280_temperature;BME280_humidity;BME280_pressure;Samples;Min_cycle;Max_cycle;Signal;HPM_P1;HPM_P2
2022/11/03 00:04:42;;;;;;;1.05;0.73;;;;;;;;;;10473802;28;20571;-71
2022/11/03 00:09:43;;;;;;;1.33;1.10;;;;;;;;;;10506901;28;20214;-72
2022/11/03 00:14:44;;;;;;;4.45;1.63;;;;;;;;;;10490170;28;20214;-72
2022/11/03 00:19:45;;;;;;;1.98;0.77;;;;;;;;;;10491880;28;20221;-71
2022/11/03 00:24:46;;;;;;;3.45;1.52;;;;;;;;;;10489718;28;20362;-71
2022/11/03 00:29:47;;;;;;;2.08;1.80;;;;;;;;;;10488998;28;20650;-71
2022/11/03 00:34:49;;;;;;;7.30;1.92;;;;;;;;;;10503137;28;20220;-72
2022/11/03 00:39:50;;;;;;;0.90;0.90;;;;;;;;;;10466695;28;20240;-72
2022/11/03 00:44:51;;;;;;;2.13;1.40;;;;;;;;;;10499617;28;20218;-70
2022/11/03 00:49:52;;;;;;;4.47;1.45;;;;;;;;;;10472423;28;20221;-70
2022/11/03 00:54:53;;;;;;;8.35;1.38;;;;;;;;;;10486713;28;20726;-71
2022/11/03 00:59:54;;;;;;;4.70;1.25;;;;;;;;;;10487134;28;20213;-74
2022/11/03 01:10:15;;;;;;;3.72;1.30;;;;;;;;;;10485821;28;20217;-72
2022/11/03 01:15:16;;;;;;;5.78;1.08;;;;;;;;;;10499113;28;20218;-72
2022/11/03 01:20:17;;;;;;;2.38;0.90;;;;;;;;;;10464879;28;20194;-72
2022/11/03 01:25:18;;;;;;;8.02;1.17;;;;;;;;;;10485218;28;20182;-72
2022/11/03 01:30:19;;;;;;;2.40;1.30;;;;;;;;;;10466714;28;20714;-72
2022/11/03 01:35:20;;;;;;;2.80;1.15;;;;;;;;;;10465805;28;20254;-73
2022/11/03 01:40:22;;;;;;;0.98;0.93;;;;;;;;;;10466846;28;20238;-73
2022/11/03 01:45:23;;;;;;;6.30;1.08;;;;;;;;;;10466166;28;20233;-72
2022/11/03 01:50:24;;;;;;;2.42;1.25;;;;;;;;;;10484628;28;20209;-72
2022/11/03 01:55:27;;;;;;;2.55;1.10;;;;;;;;;;10465921;28;20351;-72
2022/11/03 02:00:28;;;;;;;6.22;1.70;;;;;;;;;;10466151;28;20724;-73
2022/11/03 02:05:30;;;;;;;1.77;1.00;;;;;;;;;;10498546;28;20209;-73
2022/11/03 02:10:31;;;;;;;2.63;1.20;;;;;;;;;;10499516;28;20274;-72
2022/11/03 02:15:33;;;;;;;4.78;1.50;;;;;;;;;;10463147;28;20290;-73
2022/11/03 02:20:34;;;;;;;1.67;1.15;;;;;;;;;;10482371;28;20226;-72
2022/11/03 02:25:41;;;;;;;4.38;1.05;;;;;;;;;;10499008;28;20206;-72
2022/11/03 02:30:51;;;;;;;2.10;0.95;;;;;;;;;;10484779;28;20309;-72
2022/11/03 02:35:56;;;;;;;3.35;1.90;;;;;;;;;;10482891;28;20218;-72
2022/11/03 02:40:59;;;;;;;4.18;1.25;;;;;;;;;;10483183;28;20226;-72
2022/11/03 02:46:01;;;;;;;0.95;0.93;;;;;;;;;;10467819;28;20209;-72
2022/11/03 02:51:04;;;;;;;2.90;1.45;;;;;;;;;;10499379;28;20210;-72
2022/11/03 02:56:08;;;;;;;1.55;1.10;;;;;;;;;;10465966;28;20217;-72
2022/11/03 03:01:13;;;;;;;3.45;1.40;;;;;;;;;;10483748;28;20713;-72
2022/11/03 03:06:34;;;;;;;9.15;1.45;;;;;;;;;;10464462;28;20213;-72
2022/11/03 03:11:37;;;;;;;1.02;0.98;;;;;;;;;;10484522;28;20271;-72
2022/11/03 03:16:43;;;;;;;3.28;1.27;;;;;;;;;;10479855;28;20630;-73
2022/11/03 03:21:47;;;;;;;5.90;1.33;;;;;;;;;;10459502;28;20218;-73
2022/11/03 03:26:49;;;;;;;3.47;1.48;;;;;;;;;;10477988;28;20229;-72
2022/11/03 03:31:53;;;;;;;3.05;1.48;;;;;;;;;;10487326;28;20256;-73
2022/11/03 03:36:56;;;;;;;4.20;1.77;;;;;;;;;;10499724;28;20220;-72
2022/11/03 03:41:57;;;;;;;1.65;1.23;;;;;;;;;;10483794;28;20248;-73
2022/11/03 03:47:00;;;;;;;1.75;0.98;;;;;;;;;;10486081;28;20225;-73
2022/11/03 03:52:02;;;;;;;2.30;1.45;;;;;;;;;;10483516;28;20241;-73
2022/11/03 03:57:05;;;;;;;3.50;1.27;;;;;;;;;;10500722;28;20210;-73
2022/11/03 04:02:06;;;;;;;3.58;1.20;;;;;;;;;;10484921;28;20280;-73
2022/11/03 04:23:07;;;;;;;3.70;1.08;;;;;;;;;;10484888;28;20685;-73
2022/11/03 04:28:13;;;;;;;1.25;1.25;;;;;;;;;;10462860;28;20218;-72
2022/11/03 04:33:18;;;;;;;5.93;1.30;;;;;;;;;;10484024;28;20221;-73
2022/11/03 04:38:21;;;;;;;5.45;1.10;;;;;;;;;;10498633;28;20225;-72
2022/11/03 04:43:24;;;;;;;1.05;0.98;;;;;;;;;;10497509;28;20225;-73
2022/11/03 04:48:26;;;;;;;3.80;1.15;;;;;;;;;;10483550;28;20264;-72
2022/11/03 04:53:29;;;;;;;2.58;1.00;;;;;;;;;;10497286;28;20214;-73
2022/11/03 04:58:34;;;;;;;5.57;1.05;;;;;;;;;;10480724;28;20213;-72
2022/11/03 05:03:36;;;;;;;0.60;0.60;;;;;;;;;;10483477;28;20206;-73
2022/11/03 05:08:37;;;;;;;2.03;1.42;;;;;;;;;;10484305;28;20249;-73
2022/11/03 05:13:38;;;;;;;4.50;1.38;;;;;;;;;;10462478;28;20221;-72
2022/11/03 05:18:42;;;;;;;2.70;1.52;;;;;;;;;;10481162;28;20601;-73
2022/11/03 05:23:47;;;;;;;2.72;1.45;;;;;;;;;;10463388;28;20685;-73
2022/11/03 05:28:51;;;;;;;8.57;1.80;;;;;;;;;;10478941;28;20205;-73
2022/11/03 05:33:53;;;;;;;2.35;1.17;;;;;;;;;;10496004;28;20258;-73
2022/11/03 05:38:56;;;;;;;5.65;1.63;;;;;;;;;;10479346;28;20223;-73
2022/11/03 05:43:57;;;;;;;2.25;2.15;;;;;;;;;;10462358;28;20214;-73
2022/11/03 05:49:00;;;;;;;3.22;1.80;;;;;;;;;;10479153;28;20300;-72
2022/11/03 05:54:03;;;;;;;3.88;2.47;;;;;;;;;;10479559;28;20255;-72
2022/11/03 05:59:04;;;;;;;2.58;2.08;;;;;;;;;;10496011;28;20680;-73
2022/11/03 06:04:20;;;;;;;2.47;1.80;;;;;;;;;;10477227;28;20210;-72
2022/11/03 06:09:23;;;;;;;7.28;2.40;;;;;;;;;;10492457;28;20638;-72
2022/11/03 06:14:25;;;;;;;1.75;1.70;;;;;;;;;;10459962;28;20649;-73
2022/11/03 06:19:46;;;;;;;5.10;1.80;;;;;;;;;;10431856;28;20227;-73
2022/11/03 06:24:48;;;;;;;3.45;1.83;;;;;;;;;;10408263;28;20615;-73
2022/11/03 06:29:51;;;;;;;2.85;2.25;;;;;;;;;;10429571;28;20289;-73
2022/11/03 06:34:54;;;;;;;5.45;1.83;;;;;;;;;;10428812;28;20264;-73
2022/11/03 06:40:25;;;;;;;3.00;2.13;;;;;;;;;;10428153;28;20223;-73
2022/11/03 06:45:26;;;;;;;10.63;2.22;;;;;;;;;;10438237;28;20218;-73
2022/11/03 06:50:29;;;;;;;7.22;2.20;;;;;;;;;;10439861;28;20634;-73
2022/11/03 06:55:33;;;;;;;3.03;2.28;;;;;;;;;;10433330;28;20635;-73
2022/11/03 07:00:37;;;;;;;6.68;2.58;;;;;;;;;;10438842;28;20223;-73
2022/11/03 07:05:38;;;;;;;5.53;2.30;;;;;;;;;;10440914;28;20211;-72
2022/11/03 07:10:40;;;;;;;3.65;2.28;;;;;;;;;;10411622;28;20300;-73
2022/11/03 07:15:42;;;;;;;4.22;2.72;;;;;;;;;;10435051;28;20557;-73
2022/11/03 07:20:43;;;;;;;6.53;3.28;;;;;;;;;;10424525;28;20593;-73
2022/11/03 07:25:45;;;;;;;3.45;3.08;;;;;;;;;;10445826;28;20261;-73
2022/11/03 07:30:46;;;;;;;8.60;2.88;;;;;;;;;;10459837;28;20221;-73
2022/11/03 07:35:48;;;;;;;3.60;1.75;;;;;;;;;;10438668;28;20212;-73
2022/11/03 07:40:50;;;;;;;5.18;2.33;;;;;;;;;;10401812;28;20285;-73
2022/11/03 07:45:52;;;;;;;7.65;2.17;;;;;;;;;;10415769;28;20211;-72
2022/11/03 07:50:58;;;;;;;5.40;2.60;;;;;;;;;;10379082;28;20214;-72
2022/11/03 07:55:59;;;;;;;7.50;2.00;;;;;;;;;;10400906;28;20315;-72
2022/11/03 08:01:01;;;;;;;5.07;2.22;;;;;;;;;;10400791;28;20602;-73
2022/11/03 08:06:02;;;;;;;3.33;2.83;;;;;;;;;;10401714;28;20393;-72
2022/11/03 08:11:04;;;;;;;2.03;1.75;;;;;;;;;;10400439;28;20225;-73
2022/11/03 08:16:05;;;;;;;5.75;1.98;;;;;;;;;;10391031;28;20226;-72
2022/11/03 08:21:06;;;;;;;7.93;2.40;;;;;;;;;;10422047;28;20223;-71
2022/11/03 08:26:07;;;;;;;7.05;2.60;;;;;;;;;;10443989;28;20728;-73
2022/11/03 08:31:08;;;;;;;6.00;2.75;;;;;;;;;;10443081;28;20276;-73
2022/11/03 08:36:10;;;;;;;3.75;2.03;;;;;;;;;;10428037;28;20206;-72
2022/11/03 08:41:11;;;;;;;3.10;1.50;;;;;;;;;;10443426;28;20250;-72
2022/11/03 08:46:12;;;;;;;3.28;1.85;;;;;;;;;;10444326;28;20214;-72
2022/11/03 08:51:14;;;;;;;1.83;1.73;;;;;;;;;;10427746;28;20293;-72
2022/11/03 08:56:15;;;;;;;5.88;2.38;;;;;;;;;;10444341;28;20372;-72
2022/11/03 09:01:16;;;;;;;5.18;2.03;;;;;;;;;;10441653;28;20218;-72
2022/11/03 09:06:17;;;;;;;4.63;1.92;;;;;;;;;;10425618;28;20211;-72
2022/11/03 09:11:19;;;;;;;5.07;1.70;;;;;;;;;;10443604;28;20211;-72
2022/11/03 09:16:20;;;;;;;2.67;2.05;;;;;;;;;;10443316;28;20222;-72
2022/11/03 09:21:21;;;;;;;2.50;1.80;;;;;;;;;;10443293;28;20720;-72
2022/11/03 09:26:22;;;;;;;3.90;1.98;;;;;;;;;;10440522;28;20214;-72
2022/11/03 09:31:27;;;;;;;3.38;1.80;;;;;;;;;;10438720;28;20210;-71
2022/11/03 09:36:28;;;;;;;5.38;2.47;;;;;;;;;;10438601;28;20854;-72
2022/11/03 09:41:29;;;;;;;7.53;1.90;;;;;;;;;;10436716;28;20268;-72
2022/11/03 09:46:31;;;;;;;3.28;1.83;;;;;;;;;;10436196;28;20214;-72
2022/11/03 09:51:35;;;;;;;3.88;1.55;;;;;;;;;;10438842;28;20255;-72
2022/11/03 09:56:36;;;;;;;5.15;2.13;;;;;;;;;;10436930;28;20772;-71
2022/11/03 10:01:37;;;;;;;3.40;1.80;;;;;;;;;;10434788;28;20968;-71
2022/11/03 10:06:39;;;;;;;4.63;1.77;;;;;;;;;;10469446;28;20221;-72
2022/11/03 10:11:40;;;;;;;4.15;2.45;;;;;;;;;;10437044;28;20218;-72
2022/11/03 10:16:42;;;;;;;7.65;2.25;;;;;;;;;;10415277;28;20226;-73
2022/11/03 10:21:44;;;;;;;2.83;2.33;;;;;;;;;;10434047;28;20808;-75
2022/11/03 10:26:49;;;;;;;5.88;2.15;;;;;;;;;;10438516;28;20210;-74
2022/11/03 10:31:57;;;;;;;4.25;2.88;;;;;;;;;;10451167;28;20219;-73
2022/11/03 10:37:20;;;;;;;2.80;2.25;;;;;;;;;;10431392;28;20207;-74
2022/11/03 10:42:23;;;;;;;5.32;1.80;;;;;;;;;;10455135;28;20957;-72
2022/11/03 10:47:34;;;;;;;3.92;1.88;;;;;;;;;;10467904;28;20230;-72
2022/11/03 10:52:35;;;;;;;3.00;2.03;;;;;;;;;;10434012;28;20298;-73
2022/11/03 10:57:36;;;;;;;3.50;2.00;;;;;;;;;;10437387;28;20707;-72
2022/11/03 11:02:40;;;;;;;4.72;1.77;;;;;;;;;;10437040;28;20301;-73
2022/11/03 11:07:43;;;;;;;7.82;1.75;;;;;;;;;;10433838;28;20301;-72
2022/11/03 11:13:03;;;;;;;3.40;2.35;;;;;;;;;;10437807;28;20219;-72
2022/11/03 11:18:04;;;;;;;4.72;1.48;;;;;;;;;;10438150;28;20228;-73
2022/11/03 11:23:23;;;;;;;2.55;1.25;;;;;;;;;;10436189;28;20689;-72
2022/11/03 11:28:25;;;;;;;3.65;1.38;;;;;;;;;;10433504;28;20230;-72
2022/11/03 11:33:27;;;;;;;3.33;1.23;;;;;;;;;;10435758;28;20215;-72
2022/11/03 11:38:47;;;;;;;2.90;1.40;;;;;;;;;;10436378;28;20215;-73
2022/11/03 11:43:48;;;;;;;5.03;1.33;;;;;;;;;;10411913;28;20210;-73
2022/11/03 11:48:56;;;;;;;5.45;1.20;;;;;;;;;;10440285;28;20706;-72
2022/11/03 11:53:57;;;;;;;4.40;0.90;;;;;;;;;;10447750;28;20214;-72
2022/11/03 11:58:58;;;;;;;2.42;0.88;;;;;;;;;;10447130;28;20310;-73
2022/11/03 12:04:06;;;;;;;2.85;0.95;;;;;;;;;;10441293;28;20630;-73
2022/11/03 12:09:15;;;;;;;1.00;0.90;;;;;;;;;;10439407;28;20686;-72
2022/11/03 12:14:29;;;;;;;2.30;0.90;;;;;;;;;;10444860;28;20231;-73
2022/11/03 12:19:37;;;;;;;2.58;0.90;;;;;;;;;;10442785;28;20233;-72
2022/11/03 12:24:38;;;;;;;5.22;0.95;;;;;;;;;;10477961;28;20205;-72
2022/11/03 12:29:39;;;;;;;3.92;0.70;;;;;;;;;;10443870;28;20309;-72
2022/11/03 12:34:40;;;;;;;4.13;0.93;;;;;;;;;;10444248;28;20214;-72
2022/11/03 12:39:41;;;;;;;2.95;0.60;;;;;;;;;;10444392;28;20218;-72
2022/11/03 12:44:42;;;;;;;2.33;1.08;;;;;;;;;;10446295;28;20272;-72
2022/11/03 12:49:43;;;;;;;6.13;0.77;;;;;;;;;;10446603;28;20291;-72
2022/11/03 12:54:45;;;;;;;2.25;0.43;;;;;;;;;;10447499;28;20604;-72
2022/11/03 12:59:46;;;;;;;0.70;0.52;;;;;;;;;;10478357;28;20226;-73
2022/11/03 13:04:47;;;;;;;0.88;0.80;;;;;;;;;;10447296;28;20199;-73
2022/11/03 13:09:48;;;;;;;0.98;0.60;;;;;;;;;;10429110;28;20757;-74
2022/11/03 13:14:49;;;;;;;3.70;0.75;;;;;;;;;;10445956;28;20245;-73
2022/11/03 13:19:50;;;;;;;2.53;0.77;;;;;;;;;;10444839;28;20276;-71
2022/11/03 13:24:51;;;;;;;1.80;0.68;;;;;;;;;;10447378;28;20284;-72
2022/11/03 13:29:55;;;;;;;3.15;0.70;;;;;;;;;;10461168;28;20210;-71
2022/11/03 13:34:56;;;;;;;2.72;0.70;;;;;;;;;;10438556;28;20222;-71
2022/11/03 13:39:57;;;;;;;0.80;0.75;;;;;;;;;;10428556;28;20702;-72
2022/11/03 13:44:59;;;;;;;1.40;0.70;;;;;;;;;;10446581;28;20348;-73
2022/11/03 13:50:00;;;;;;;8.48;0.85;;;;;;;;;;10438586;28;20946;-73
2022/11/03 13:55:01;;;;;;;1.27;0.73;;;;;;;;;;10455532;28;20217;-75
2022/11/03 14:00:06;;;;;;;1.73;0.98;;;;;;;;;;10440445;28;20584;-73
2022/11/03 14:05:13;;;;;;;1.77;0.65;;;;;;;;;;10441180;28;20586;-73
2022/11/03 14:10:14;;;;;;;2.47;0.77;;;;;;;;;;10444217;28;20258;-73
2022/11/03 14:15:15;;;;;;;0.75;0.73;;;;;;;;;;10444409;28;20702;-72
2022/11/03 14:20:16;;;;;;;2.22;0.63;;;;;;;;;;10497898;28;20627;-72
2022/11/03 14:25:19;;;;;;;3.25;0.80;;;;;;;;;;10483990;28;20216;-71
2022/11/03 14:30:20;;;;;;;2.38;0.70;;;;;;;;;;10481244;28;20187;-73
2022/11/03 14:35:22;;;;;;;1.67;0.80;;;;;;;;;;10477370;28;20222;-72
2022/11/03 14:45:45;;;;;;;1.55;0.73;;;;;;;;;;10445297;28;20221;-72
2022/11/03 14:50:46;;;;;;;0.82;0.60;;;;;;;;;;10449596;28;20228;-72
2022/11/03 14:55:47;;;;;;;1.48;0.90;;;;;;;;;;10479643;28;20215;-71
2022/11/03 15:00:48;;;;;;;3.60;0.75;;;;;;;;;;10460842;28;20283;-71
2022/11/03 15:05:53;;;;;;;1.23;0.80;;;;;;;;;;10461041;28;20213;-72
2022/11/03 15:10:54;;;;;;;0.90;0.73;;;;;;;;;;10476610;28;20222;-70
2022/11/03 15:15:55;;;;;;;1.60;0.85;;;;;;;;;;10483278;28;20224;-72
2022/11/03 15:20:56;;;;;;;0.77;0.50;;;;;;;;;;10481993;28;20226;-71
2022/11/03 15:25:57;;;;;;;0.85;0.60;;;;;;;;;;10486315;28;20253;-71
2022/11/03 15:30:59;;;;;;;1.83;0.60;;;;;;;;;;10467506;28;20770;-70
2022/11/03 15:36:00;;;;;;;1.17;0.75;;;;;;;;;;10448248;28;20229;-70
2022/11/03 15:41:18;;;;;;;3.13;0.73;;;;;;;;;;10485985;28;20291;-72
2022/11/03 15:46:19;;;;;;;5.22;2.72;;;;;;;;;;10507118;28;20689;-73
2022/11/03 15:51:20;;;;;;;6.90;5.30;;;;;;;;;;10490442;28;20617;-73
2022/11/03 15:56:21;;;;;;;3.78;2.25;;;;;;;;;;10490297;28;20210;-72
2022/11/03 16:01:22;;;;;;;3.22;1.75;;;;;;;;;;10466562;28;20292;-72
2022/11/03 16:06:24;;;;;;;7.15;5.13;;;;;;;;;;10466421;28;20279;-73
2022/11/03 16:11:25;;;;;;;2.90;1.70;;;;;;;;;;10453906;28;20222;-72
2022/11/03 16:16:26;;;;;;;5.60;2.80;;;;;;;;;;10458022;28;21135;-71
2022/11/03 16:21:27;;;;;;;2.90;2.38;;;;;;;;;;10423527;28;20229;-72
2022/11/03 16:26:30;;;;;;;4.95;3.17;;;;;;;;;;10447646;28;20352;-72
2022/11/03 16:31:31;;;;;;;4.53;4.13;;;;;;;;;;10447548;28;20662;-71
2022/11/03 16:36:32;;;;;;;2.47;2.28;;;;;;;;;;10445280;28;20241;-72
2022/11/03 16:41:33;;;;;;;2.00;1.75;;;;;;;;;;10461239;28;20222;-71
2022/11/03 16:46:35;;;;;;;2.60;2.40;;;;;;;;;;10445703;28;20215;-72
2022/11/03 16:51:36;;;;;;;1.30;1.17;;;;;;;;;;10443267;28;20202;-71
2022/11/03 16:56:37;;;;;;;5.28;1.73;;;;;;;;;;10442185;28;20214;-73
2022/11/03 17:01:38;;;;;;;2.72;1.92;;;;;;;;;;10443944;28;20214;-71
2022/11/03 17:06:39;;;;;;;6.05;1.85;;;;;;;;;;10442491;28;20221;-72
2022/11/03 17:11:40;;;;;;;2.53;1.85;;;;;;;;;;10419821;28;20233;-70
2022/11/03 17:16:44;;;;;;;3.88;1.50;;;;;;;;;;10442774;28;20227;-70
2022/11/03 17:21:45;;;;;;;4.10;1.50;;;;;;;;;;10442205;28;20287;-70
2022/11/03 17:26:46;;;;;;;2.10;1.20;;;;;;;;;;10458827;28;20206;-69
2022/11/03 17:31:48;;;;;;;1.95;1.30;;;;;;;;;;10441123;28;20329;-70
2022/11/03 17:36:50;;;;;;;3.25;2.92;;;;;;;;;;10419452;28;20230;-72
2022/11/03 17:41:51;;;;;;;1.42;1.33;;;;;;;;;;10401517;28;20241;-71
2022/11/03 17:46:53;;;;;;;7.18;5.97;;;;;;;;;;10454931;28;20242;-72
2022/11/03 17:51:54;;;;;;;5.05;4.03;;;;;;;;;;10435065;28;20345;-72
2022/11/03 17:56:56;;;;;;;11.68;8.32;;;;;;;;;;10455106;28;20352;-70
2022/11/03 18:01:57;;;;;;;4.18;3.88;;;;;;;;;;10455649;28;20226;-71
2022/11/03 18:06:59;;;;;;;3.40;3.10;;;;;;;;;;10440634;28;20211;-71
2022/11/03 18:17:20;;;;;;;4.65;3.60;;;;;;;;;;10437942;28;20226;-72
2022/11/03 18:22:21;;;;;;;3.70;3.40;;;;;;;;;;10451341;28;20229;-71
2022/11/03 18:27:22;;;;;;;13.55;7.47;;;;;;;;;;10412443;28;20242;-73
2022/11/03 18:32:23;;;;;;;4.93;3.13;;;;;;;;;;10416200;28;20219;-72
2022/11/03 18:37:24;;;;;;;15.98;9.45;;;;;;;;;;10417061;28;20314;-72
2022/11/03 18:42:26;;;;;;;3.10;2.72;;;;;;;;;;10438969;28;20229;-71
2022/11/03 18:47:27;;;;;;;8.93;6.47;;;;;;;;;;10431777;28;20630;-71
2022/11/03 18:52:28;;;;;;;10.50;6.03;;;;;;;;;;10413875;28;20242;-72
2022/11/03 18:57:29;;;;;;;11.13;4.65;;;;;;;;;;10453187;28;20206;-70
2022/11/03 19:02:30;;;;;;;7.53;6.05;;;;;;;;;;10444725;28;20215;-73
2022/11/03 19:07:38;;;;;;;3.17;2.70;;;;;;;;;;10450271;28;20726;-71
2022/11/03 19:12:42;;;;;;;5.72;5.22;;;;;;;;;;10447557;28;20314;-73
2022/11/03 19:17:44;;;;;;;4.15;3.13;;;;;;;;;;10462814;28;20225;-72
2022/11/03 19:22:45;;;;;;;3.42;2.40;;;;;;;;;;10464808;28;20221;-75
2022/11/03 19:27:47;;;;;;;4.20;3.25;;;;;;;;;;10489421;28;20222;-69
2022/11/03 19:32:50;;;;;;;6.00;5.45;;;;;;;;;;10484536;28;20221;-73
2022/11/03 19:37:57;;;;;;;4.13;2.85;;;;;;;;;;10488709;28;20244;-73
2022/11/03 19:42:58;;;;;;;4.38;2.88;;;;;;;;;;10486687;28;20339;-68
2022/11/03 19:48:01;;;;;;;4.00;2.25;;;;;;;;;;10489557;28;20351;-76
2022/11/03 19:53:04;;;;;;;3.97;3.50;;;;;;;;;;10485153;28;20292;-72
2022/11/03 19:58:15;;;;;;;3.83;2.78;;;;;;;;;;10466504;28;20225;-74
2022/11/03 20:03:17;;;;;;;3.42;2.95;;;;;;;;;;10481180;28;20676;-70
2022/11/03 20:08:20;;;;;;;3.90;2.92;;;;;;;;;;10487416;28;20259;-70
2022/11/03 20:13:22;;;;;;;3.42;2.67;;;;;;;;;;10506050;28;20214;-69
2022/11/03 20:18:23;;;;;;;3.00;2.47;;;;;;;;;;10461608;28;20238;-72
2022/11/03 20:23:29;;;;;;;4.78;2.95;;;;;;;;;;10447645;28;21000;-70
2022/11/03 20:28:31;;;;;;;3.78;2.47;;;;;;;;;;10449830;28;20214;-69
2022/11/03 20:33:32;;;;;;;3.45;3.25;;;;;;;;;;10449739;28;20222;-70
2022/11/03 20:38:33;;;;;;;6.20;3.97;;;;;;;;;;10434246;28;20199;-70
2022/11/03 20:43:37;;;;;;;3.80;3.47;;;;;;;;;;10377387;28;20211;-69
2022/11/03 20:48:38;;;;;;;4.80;2.88;;;;;;;;;;10435952;28;20649;-69
2022/11/03 20:53:39;;;;;;;4.53;3.95;;;;;;;;;;10461085;28;20956;-69
2022/11/03 20:58:41;;;;;;;7.28;6.00;;;;;;;;;;10414733;28;20273;-70
2022/11/03 21:03:42;;;;;;;5.47;3.25;;;;;;;;;;10404800;28;20215;-70
2022/11/03 21:08:44;;;;;;;13.73;10.25;;;;;;;;;;10415195;28;20214;-71
2022/11/03 21:13:45;;;;;;;9.45;8.05;;;;;;;;;;10420073;28;20219;-71
2022/11/03 21:24:09;;;;;;;15.85;11.95;;;;;;;;;;10485079;28;20206;-70
2022/11/03 21:29:10;;;;;;;15.45;8.80;;;;;;;;;;10467889;28;20248;-71
2022/11/03 21:34:11;;;;;;;4.50;3.95;;;;;;;;;;10485082;28;20638;-71
2022/11/03 21:39:12;;;;;;;3.42;3.15;;;;;;;;;;10481564;28;20221;-71
2022/11/03 21:44:16;;;;;;;6.28;3.47;;;;;;;;;;10449486;28;20605;-71
2022/11/03 21:54:37;;;;;;;5.50;3.80;;;;;;;;;;10435000;28;20210;-70
2022/11/03 21:59:38;;;;;;;7.00;3.30;;;;;;;;;;10403838;28;20224;-70
2022/11/03 22:04:40;;;;;;;3.75;2.67;;;;;;;;;;10400529;28;20211;-71
2022/11/03 22:09:41;;;;;;;4.95;3.47;;;;;;;;;;10438999;28;20264;-71
2022/11/03 22:46:41;;;;;;;4.00;3.53;;;;;;;;;;10441815;28;20221;-71
2022/11/03 22:51:42;;;;;;;7.35;3.65;;;;;;;;;;10454936;28;20575;-71
2022/11/03 22:56:43;;;;;;;7.60;4.30;;;;;;;;;;10456337;28;20217;-71
2022/11/03 23:01:44;;;;;;;4.25;3.80;;;;;;;;;;10439269;28;20233;-71
2022/11/03 23:06:45;;;;;;;7.40;4.00;;;;;;;;;;10440515;28;20210;-70
2022/11/03 23:11:47;;;;;;;6.28;4.03;;;;;;;;;;10441368;28;20582;-71
2022/11/03 23:16:48;;;;;;;5.88;3.80;;;;;;;;;;10423172;28;20229;-71
2022/11/03 23:21:50;;;;;;;6.95;3.80;;;;;;;;;;10422315;28;20218;-72
2022/11/03 23:26:51;;;;;;;5.43;3.60;;;;;;;;;;10454871;28;20864;-71
2022/11/03 23:31:53;;;;;;;4.50;3.60;;;;;;;;;;10441238;28;20224;-71
2022/11/03 23:36:54;;;;;;;5.35;3.85;;;;;;;;;;10440082;28;20987;-71
2022/11/03 23:41:55;;;;;;;4.55;4.03;;;;;;;;;;10422295;28;20219;-72
2022/11/03 23:52:16;;;;;;;5.15;4.05;;;;;;;;;;10448439;28;20225;-71
